createdAt,value
2023-05-15T00:00:44.102Z,1
2023-05-15T00:02:44.198Z,1
2023-05-15T00:04:47.528Z,1
2023-05-15T00:06:44.149Z,1
2023-05-15T00:10:54.041Z,1
2023-05-15T00:12:41.584Z,1
2023-05-15T00:14:41.649Z,1
2023-05-15T00:16:41.712Z,1
2023-05-15T00:18:45.608Z,1
2023-05-15T00:20:42.037Z,1
2023-05-15T00:22:42.082Z,1
2023-05-15T00:24:45.211Z,1
2023-05-15T00:26:42.347Z,1
2023-05-15T00:28:46.042Z,1
2023-05-15T00:30:45.815Z,1
2023-05-15T00:32:45.792Z,1
2023-05-15T00:34:42.824Z,1
2023-05-15T00:36:42.867Z,1
2023-05-15T00:38:43.384Z,1
2023-05-15T00:40:43.372Z,1
2023-05-15T00:42:43.326Z,1
2023-05-15T00:44:43.510Z,1
2023-05-15T00:46:46.735Z,1
2023-05-15T00:48:46.790Z,1
2023-05-15T00:50:42.942Z,1
2023-05-15T00:52:44.000Z,1
2023-05-15T00:54:44.175Z,1
2023-05-15T00:56:44.440Z,1
2023-05-15T00:58:46.522Z,1
2023-05-15T01:00:45.235Z,1
2023-05-15T01:02:51.746Z,1
2023-05-15T01:04:45.422Z,1
2023-05-15T01:06:45.552Z,1
2023-05-15T01:08:49.158Z,1
2023-05-15T01:10:45.752Z,1
2023-05-15T01:12:45.282Z,1
2023-05-15T01:14:48.711Z,1
2023-05-15T01:16:45.509Z,1
2023-05-15T01:18:45.927Z,1
2023-05-15T01:20:45.910Z,1
2023-05-15T01:22:45.848Z,1
2023-05-15T01:24:46.143Z,1
2023-05-15T01:26:50.005Z,1
2023-05-15T01:28:46.072Z,1
2023-05-15T01:30:46.236Z,1
2023-05-15T01:32:46.422Z,1
2023-05-15T01:34:46.741Z,1
2023-05-15T01:36:53.537Z,1
2023-05-15T01:38:46.810Z,1
2023-05-15T01:40:47.186Z,1
2023-05-15T01:42:47.743Z,1
2023-05-15T01:44:47.141Z,1
2023-05-15T01:46:50.544Z,1
2023-05-15T01:48:47.567Z,1
2023-05-15T01:50:47.692Z,1
2023-05-15T01:52:47.990Z,1
2023-05-15T01:54:51.434Z,1
2023-05-15T01:56:48.337Z,1
2023-05-15T01:58:51.548Z,1
2023-05-15T02:00:51.732Z,1
2023-05-15T02:02:48.065Z,1
2023-05-15T02:04:54.690Z,1
2023-05-15T02:06:48.412Z,1
2023-05-15T02:08:48.319Z,1
2023-05-15T02:10:52.431Z,1
2023-05-15T02:12:48.654Z,1
2023-05-15T02:16:48.887Z,1
2023-05-15T02:18:55.692Z,1
2023-05-15T02:20:55.664Z,1
2023-05-15T02:22:49.308Z,1
2023-05-15T02:24:49.375Z,1
2023-05-15T02:26:53.071Z,1
2023-05-15T02:28:49.375Z,1
2023-05-15T02:30:49.578Z,1
2023-05-15T02:32:49.715Z,1
2023-05-15T02:34:49.770Z,1
2023-05-15T02:36:49.892Z,1
2023-05-15T02:38:50.045Z,1
2023-05-15T02:40:50.020Z,1
2023-05-15T02:42:53.507Z,0
2023-05-15T02:44:50.331Z,0
2023-05-15T02:46:54.026Z,0
2023-05-15T02:48:50.549Z,0
2023-05-15T02:50:51.765Z,0
2023-05-15T02:52:51.019Z,0
2023-05-15T02:54:54.489Z,0.1
2023-05-15T02:58:51.353Z,0.2
2023-05-15T03:00:51.407Z,0.2
2023-05-15T03:02:54.697Z,0.3
2023-05-15T03:04:51.605Z,0.4
2023-05-15T03:06:51.725Z,0.5
2023-05-15T03:08:51.695Z,0.7
2023-05-15T03:10:52.404Z,1.1
2023-05-15T03:12:51.948Z,1.4
2023-05-15T03:14:52.254Z,2
2023-05-15T03:16:52.336Z,2.9
2023-05-15T03:18:55.530Z,3.7
2023-05-15T03:20:52.380Z,5
2023-05-15T03:22:52.540Z,6.4
2023-05-15T03:24:52.951Z,8.6
2023-05-15T03:26:55.878Z,11
2023-05-15T03:28:56.060Z,13.5
2023-05-15T03:30:53.046Z,16.4
2023-05-15T03:34:53.257Z,25.8
2023-05-15T03:36:56.566Z,30
2023-05-15T03:38:53.499Z,36.6
2023-05-15T03:41:00.324Z,42.5
2023-05-15T03:42:54.222Z,47
2023-05-15T03:44:53.818Z,54.6
2023-05-15T03:46:53.880Z,60.3
2023-05-15T03:48:54.068Z,70.1
2023-05-15T03:50:57.230Z,73.7
2023-05-15T03:52:54.390Z,85.6
2023-05-15T03:54:54.506Z,90
2023-05-15T03:56:54.610Z,94.6
2023-05-15T04:00:55.049Z,109.9
2023-05-15T04:02:54.798Z,109.9
2023-05-15T04:04:58.096Z,115.6
2023-05-15T04:08:55.301Z,156
2023-05-15T04:10:55.791Z,172.4
2023-05-15T04:12:55.548Z,200.3
2023-05-15T04:14:55.775Z,221.4
2023-05-15T04:16:55.801Z,270.4
2023-05-15T04:18:55.970Z,298.9
2023-05-15T04:20:56.240Z,347.2
2023-05-15T04:22:56.184Z,347.2
2023-05-15T04:24:56.190Z,383.8
2023-05-15T04:26:56.449Z,424.1
2023-05-15T04:32:56.832Z,544.6
2023-05-15T04:34:56.800Z,601.8
2023-05-15T04:36:56.969Z,632.7
2023-05-15T04:38:57.052Z,699.2
2023-05-15T04:40:57.218Z,735.1
2023-05-15T04:42:57.328Z,812.4
2023-05-15T04:45:00.349Z,812.4
2023-05-15T04:46:57.482Z,943.9
2023-05-15T04:48:57.578Z,854.1
2023-05-15T04:51:01.199Z,854.1
2023-05-15T04:52:57.777Z,854.1
2023-05-15T04:54:57.987Z,943.9
2023-05-15T04:56:57.905Z,1152.9
2023-05-15T04:58:59.816Z,1096.6
2023-05-15T05:00:58.644Z,1212
2023-05-15T05:03:01.813Z,1274.1
2023-05-15T05:04:58.537Z,1274.1
2023-05-15T05:07:05.666Z,1480.3
2023-05-15T05:09:02.172Z,1408.1
2023-05-15T05:11:03.268Z,1408.1
2023-05-15T05:12:59.565Z,1408.1
2023-05-15T05:15:03.172Z,1408.1
2023-05-15T05:16:59.371Z,1480.3
2023-05-15T05:18:59.517Z,1636
2023-05-15T05:20:59.683Z,1900.7
2023-05-15T05:23:03.774Z,1900.7
2023-05-15T05:25:00.130Z,1900.7
2023-05-15T05:27:00.328Z,1808
2023-05-15T05:29:03.725Z,1900.7
2023-05-15T05:31:00.521Z,2100.6
2023-05-15T05:33:00.510Z,2697.3
2023-05-15T05:34:58.532Z,2565.7
2023-05-15T05:37:01.007Z,2440.6
2023-05-15T05:38:58.028Z,2321.6
2023-05-15T05:41:01.078Z,2981
2023-05-15T05:43:01.009Z,2835.6
2023-05-15T05:45:04.634Z,3641
2023-05-15T05:47:05.281Z,3133.8
2023-05-15T05:49:01.431Z,4230.2
2023-05-15T05:51:08.339Z,3463.4
2023-05-15T05:53:05.476Z,3827.6
2023-05-15T05:55:05.162Z,3641
2023-05-15T05:57:01.811Z,3827.6
2023-05-15T06:01:02.537Z,4023.9
2023-05-15T06:03:02.567Z,4675.1
2023-05-15T06:05:02.640Z,4447.1
2023-05-15T06:07:02.718Z,4447.1
2023-05-15T06:09:03.580Z,4447.1
2023-05-15T06:11:03.267Z,4675.1
2023-05-15T06:13:03.179Z,5166.8
2023-05-15T06:15:03.434Z,5431.7
2023-05-15T06:17:03.547Z,4675.1
2023-05-15T06:19:06.614Z,4447.1
2023-05-15T06:21:03.642Z,4447.1
2023-05-15T06:23:07.067Z,4675.1
2023-05-15T06:27:04.371Z,5710.1
2023-05-15T06:29:07.738Z,6634.2
2023-05-15T06:31:07.457Z,6002.9
2023-05-15T06:33:04.453Z,4675.1
2023-05-15T06:35:04.595Z,4230.2
2023-05-15T06:37:04.844Z,4230.2
2023-05-15T06:39:04.916Z,4023.9
2023-05-15T06:41:05.335Z,4023.9
2023-05-15T06:43:05.516Z,4023.9
2023-05-15T06:45:06.076Z,4023.9
2023-05-15T06:47:06.050Z,3827.6
2023-05-15T06:49:09.057Z,4230.2
2023-05-15T06:51:05.775Z,4675.1
2023-05-15T06:53:06.291Z,5166.8
2023-05-15T06:55:06.297Z,5431.7
2023-05-15T06:57:12.631Z,5431.7
2023-05-15T06:59:06.654Z,5431.7
2023-05-15T07:01:07.090Z,5166.8
2023-05-15T07:03:06.573Z,5166.8
2023-05-15T07:05:07.124Z,5166.8
2023-05-15T07:07:07.442Z,5431.7
2023-05-15T07:09:11.106Z,5431.7
2023-05-15T07:11:07.552Z,5710.1
2023-05-15T07:13:07.636Z,6002.9
2023-05-15T07:15:11.027Z,6002.9
2023-05-15T07:17:12.403Z,6310.7
2023-05-15T07:19:08.219Z,6634.2
2023-05-15T07:21:11.540Z,6634.2
2023-05-15T07:23:11.425Z,6310.7
2023-05-15T07:25:08.697Z,6310.7
2023-05-15T07:27:11.778Z,6002.9
2023-05-15T07:29:09.859Z,5431.7
2023-05-15T07:31:11.918Z,4914.8
2023-05-15T07:33:08.951Z,4914.8
2023-05-15T07:35:09.175Z,4675.1
2023-05-15T07:37:13.004Z,5710.1
2023-05-15T07:39:12.637Z,5166.8
2023-05-15T07:43:16.134Z,4675.1
2023-05-15T07:45:09.929Z,6002.9
2023-05-15T07:47:10.193Z,5431.7
2023-05-15T07:51:10.225Z,5431.7
2023-05-15T07:53:10.554Z,6002.9
2023-05-15T07:55:14.359Z,6634.2
2023-05-15T07:57:14.006Z,8955.3
2023-05-15T07:59:10.962Z,9414.4
2023-05-15T08:01:11.365Z,8955.3
2023-05-15T08:03:11.313Z,8518.5
2023-05-15T08:05:17.751Z,8103.1
2023-05-15T08:07:11.546Z,8518.5
2023-05-15T08:09:11.570Z,8518.5
2023-05-15T08:11:15.028Z,9414.4
2023-05-15T08:13:12.041Z,10404.6
2023-05-15T08:15:12.198Z,10404.6
2023-05-15T08:17:18.255Z,8955.3
2023-05-15T08:19:12.428Z,8518.5
2023-05-15T08:21:18.419Z,8955.3
2023-05-15T08:23:12.576Z,8518.5
2023-05-15T08:25:15.917Z,9414.4
2023-05-15T08:27:12.888Z,9897.1
2023-05-15T08:29:13.061Z,9414.4
2023-05-15T08:31:13.330Z,9897.1
2023-05-15T08:33:13.381Z,11498.8
2023-05-15T08:35:19.616Z,10938
2023-05-15T08:37:13.492Z,12088.4
2023-05-15T08:39:16.832Z,10938
2023-05-15T08:41:13.824Z,10938
2023-05-15T08:43:13.699Z,10938
2023-05-15T08:45:13.996Z,11498.8
2023-05-15T08:49:20.730Z,10938
2023-05-15T08:51:17.689Z,10938
2023-05-15T08:53:14.706Z,10404.6
2023-05-15T08:55:14.878Z,9897.1
2023-05-15T08:57:14.985Z,9897.1
2023-05-15T08:59:14.945Z,9414.4
2023-05-15T09:01:15.336Z,8518.5
2023-05-15T09:03:18.613Z,7707.9
2023-05-15T09:05:15.489Z,6974.4
2023-05-15T09:07:15.630Z,6310.7
2023-05-15T09:09:18.775Z,6310.7
2023-05-15T09:11:15.838Z,6634.2
2023-05-15T09:13:16.298Z,6634.2
2023-05-15T09:15:17.842Z,6634.2
2023-05-15T09:17:16.460Z,6974.4
2023-05-15T09:19:23.015Z,6974.4
2023-05-15T09:21:16.952Z,6974.4
2023-05-15T09:23:17.080Z,7707.9
2023-05-15T09:25:20.513Z,8103.1
2023-05-15T09:27:17.372Z,8103.1
2023-05-15T09:29:18.604Z,8518.5
2023-05-15T09:31:17.683Z,8518.5
2023-05-15T09:33:17.606Z,8955.3
2023-05-15T09:35:17.739Z,8518.5
2023-05-15T09:37:17.960Z,8103.1
2023-05-15T09:39:24.239Z,7332
2023-05-15T09:41:18.395Z,7707.9
2023-05-15T09:43:21.773Z,6974.4
2023-05-15T09:45:18.366Z,6974.4
2023-05-15T09:47:18.724Z,6974.4
2023-05-15T09:49:18.808Z,7707.9
2023-05-15T09:51:18.888Z,10404.6
2023-05-15T09:53:21.279Z,12088.4
2023-05-15T09:55:19.575Z,12088.4
2023-05-15T09:57:19.612Z,10938
2023-05-15T09:59:19.807Z,11498.8
2023-05-15T10:01:19.587Z,10938
2023-05-15T10:03:22.658Z,10404.6
2023-05-15T10:05:31.909Z,9414.4
2023-05-15T10:07:19.943Z,11498.8
2023-05-15T10:09:19.963Z,9414.4
2023-05-15T10:11:20.129Z,9897.1
2023-05-15T10:13:20.497Z,8955.3
2023-05-15T10:15:20.482Z,8955.3
2023-05-15T10:19:21.053Z,11498.8
2023-05-15T10:21:21.105Z,11498.8
2023-05-15T10:23:20.991Z,12088.4
2023-05-15T10:25:21.292Z,10938
2023-05-15T10:27:21.378Z,8518.5
2023-05-15T10:29:21.650Z,7707.9
2023-05-15T10:31:21.695Z,6634.2
2023-05-15T10:33:21.541Z,6310.7
2023-05-15T10:35:22.211Z,6634.2
2023-05-15T10:37:25.175Z,6974.4
2023-05-15T10:41:22.270Z,9897.1
2023-05-15T10:43:22.357Z,10404.6
2023-05-15T10:45:22.518Z,10404.6
2023-05-15T10:47:22.820Z,9414.4
2023-05-15T10:49:22.909Z,11498.8
2023-05-15T10:51:23.063Z,12088.4
2023-05-15T10:53:22.977Z,11498.8
2023-05-15T10:55:23.017Z,12088.4
2023-05-15T10:57:23.245Z,12088.4
2023-05-15T10:59:23.415Z,10404.6
2023-05-15T11:01:26.812Z,7707.9
2023-05-15T11:03:23.665Z,6634.2
2023-05-15T11:05:26.987Z,6634.2
2023-05-15T11:07:27.062Z,5166.8
2023-05-15T11:09:28.019Z,4230.2
2023-05-15T11:11:24.424Z,4023.9
2023-05-15T11:13:23.195Z,4447.1
2023-05-15T11:15:24.719Z,5166.8
2023-05-15T11:17:24.875Z,5431.7
2023-05-15T11:19:25.085Z,5431.7
2023-05-15T11:21:25.223Z,5710.1
2023-05-15T11:23:29.605Z,6974.4
2023-05-15T11:25:25.625Z,9414.4
2023-05-15T11:27:32.334Z,10938
2023-05-15T11:29:25.881Z,9897.1
2023-05-15T11:31:32.556Z,9414.4
2023-05-15T11:33:26.134Z,9897.1
2023-05-15T11:35:29.321Z,10938
2023-05-15T11:37:29.792Z,10938
2023-05-15T11:39:26.684Z,9897.1
2023-05-15T11:41:26.767Z,10938
2023-05-15T11:43:26.864Z,10404.6
2023-05-15T11:45:30.238Z,10404.6
2023-05-15T11:47:27.173Z,10938
2023-05-15T11:49:27.365Z,12088.4
2023-05-15T11:51:27.487Z,10404.6
2023-05-15T11:55:27.688Z,10404.6
2023-05-15T11:57:27.742Z,9414.4
2023-05-15T11:59:28.013Z,7707.9
2023-05-15T12:01:31.571Z,6974.4
2023-05-15T12:03:28.291Z,6634.2
2023-05-15T12:05:28.676Z,6974.4
2023-05-15T12:07:31.875Z,7707.9
2023-05-15T12:09:29.085Z,8518.5
2023-05-15T12:11:28.760Z,8955.3
2023-05-15T12:13:27.708Z,10404.6
2023-05-15T12:15:29.249Z,12088.4
2023-05-15T12:17:29.343Z,9414.4
2023-05-15T12:19:29.403Z,8955.3
2023-05-15T12:21:29.758Z,8518.5
2023-05-15T12:23:30.002Z,8103.1
2023-05-15T12:25:30.078Z,6974.4
2023-05-15T12:27:30.188Z,5431.7
2023-05-15T12:29:30.263Z,5431.7
2023-05-15T12:31:33.604Z,4914.8
2023-05-15T12:33:30.403Z,4914.8
2023-05-15T12:35:30.890Z,6002.9
2023-05-15T12:37:30.957Z,6634.2
2023-05-15T12:39:37.593Z,6974.4
2023-05-15T12:41:31.396Z,7332
2023-05-15T12:43:31.280Z,8518.5
2023-05-15T12:47:34.661Z,4447.1
2023-05-15T12:49:31.799Z,3133.8
2023-05-15T12:51:34.762Z,2697.3
2023-05-15T12:53:35.211Z,1998.2
2023-05-15T12:55:32.447Z,1636
2023-05-15T12:57:32.797Z,1408.1
2023-05-15T12:59:32.555Z,1152.9
2023-05-15T13:01:33.045Z,1043.1
2023-05-15T13:03:36.107Z,1152.9
2023-05-15T13:05:32.804Z,1408.1
2023-05-15T13:07:33.101Z,1808
2023-05-15T13:09:33.331Z,2208.3
2023-05-15T13:11:33.573Z,2321.6
2023-05-15T13:13:36.785Z,2208.3
2023-05-15T13:15:33.878Z,2697.3
2023-05-15T13:17:34.087Z,3294.5
2023-05-15T13:19:37.174Z,4914.8
2023-05-15T13:21:34.422Z,7332
2023-05-15T13:23:37.379Z,7707.9
2023-05-15T13:25:34.281Z,7332
2023-05-15T13:27:34.685Z,7707.9
2023-05-15T13:29:34.814Z,10938
2023-05-15T13:31:38.169Z,8518.5
2023-05-15T13:33:35.162Z,9414.4
2023-05-15T13:35:35.178Z,7707.9
2023-05-15T13:37:41.533Z,8103.1
2023-05-15T13:39:35.585Z,8518.5
2023-05-15T13:41:35.676Z,7707.9
2023-05-15T13:43:36.440Z,7707.9
2023-05-15T13:45:33.416Z,7707.9
2023-05-15T13:47:42.888Z,7707.9
2023-05-15T13:49:36.969Z,8103.1
2023-05-15T13:51:36.765Z,8103.1
2023-05-15T13:53:37.489Z,8103.1
2023-05-15T13:55:37.347Z,8103.1
2023-05-15T13:57:37.330Z,6974.4
2023-05-15T13:59:47.708Z,6634.2
2023-05-15T14:01:37.441Z,6310.7
2023-05-15T14:03:41.057Z,6310.7
2023-05-15T14:05:41.121Z,6310.7
2023-05-15T14:07:44.145Z,6002.9
2023-05-15T14:09:40.768Z,6002.9
2023-05-15T14:11:44.460Z,6002.9
2023-05-15T14:13:40.874Z,5710.1
2023-05-15T14:15:41.111Z,5431.7
2023-05-15T14:17:38.058Z,5166.8
2023-05-15T14:19:40.954Z,4914.8
2023-05-15T14:21:40.806Z,4914.8
2023-05-15T14:23:40.889Z,4914.8
2023-05-15T14:25:41.682Z,5166.8
2023-05-15T14:27:41.565Z,6310.7
2023-05-15T14:29:40.730Z,6002.9
2023-05-15T14:31:41.361Z,6310.7
2023-05-15T14:33:37.959Z,6974.4
2023-05-15T14:35:44.656Z,6310.7
2023-05-15T14:37:40.957Z,8518.5
2023-05-15T14:39:45.191Z,8518.5
2023-05-15T14:41:47.895Z,8518.5
2023-05-15T14:43:41.198Z,8518.5
2023-05-15T14:45:44.211Z,8955.3
2023-05-15T14:47:41.252Z,8955.3
2023-05-15T14:49:42.965Z,9414.4
2023-05-15T14:51:41.630Z,9414.4
2023-05-15T14:55:51.135Z,7707.9
2023-05-15T14:57:45.173Z,9414.4
2023-05-15T14:59:43.612Z,7332
2023-05-15T15:01:47.038Z,8955.3
2023-05-15T15:03:42.943Z,8103.1
2023-05-15T15:05:42.490Z,8518.5
2023-05-15T15:07:45.668Z,7332
2023-05-15T15:09:43.086Z,7332
2023-05-15T15:11:43.809Z,8518.5
2023-05-15T15:13:44.340Z,7707.9
2023-05-15T15:15:44.278Z,8518.5
2023-05-15T15:17:44.034Z,7707.9
2023-05-15T15:19:43.439Z,6310.7
2023-05-15T15:21:43.667Z,7707.9
2023-05-15T15:23:44.727Z,7707.9
2023-05-15T15:25:44.997Z,7707.9
2023-05-15T15:27:44.320Z,7332
2023-05-15T15:29:45.015Z,6002.9
2023-05-15T15:31:48.052Z,4675.1
2023-05-15T15:33:47.547Z,4230.2
2023-05-15T15:35:46.283Z,3827.6
2023-05-15T15:37:45.233Z,4023.9
2023-05-15T15:39:54.392Z,4023.9
2023-05-15T15:41:45.575Z,3827.6
2023-05-15T15:43:49.325Z,3641
2023-05-15T15:47:46.334Z,2981
2023-05-15T15:49:46.291Z,2835.6
2023-05-15T15:51:53.228Z,2565.7
2023-05-15T15:53:46.901Z,2208.3
2023-05-15T15:55:47.401Z,1808
2023-05-15T15:57:47.971Z,1408.1
2023-05-15T15:59:52.932Z,1339.4
2023-05-15T16:01:47.325Z,1480.3
2023-05-15T16:03:47.467Z,1719.9
2023-05-15T16:05:51.932Z,1719.9
2023-05-15T16:07:47.592Z,1719.9
2023-05-15T16:09:53.742Z,1719.9
2023-05-15T16:11:50.211Z,1556.2
2023-05-15T16:13:48.581Z,1408.1
2023-05-15T16:16:00.774Z,1274.1
2023-05-15T16:17:48.553Z,1212
2023-05-15T16:19:48.795Z,1152.9
2023-05-15T16:21:49.626Z,1043.1
2023-05-15T16:23:49.194Z,1043.1
2023-05-15T16:25:49.707Z,992.3
2023-05-15T16:27:50.104Z,943.9
2023-05-15T16:29:50.099Z,854.1
2023-05-15T16:31:57.441Z,812.4
2023-05-15T16:33:51.256Z,812.4
2023-05-15T16:35:53.614Z,812.4
2023-05-15T16:37:51.870Z,735.1
2023-05-15T16:39:51.109Z,665.1
2023-05-15T16:41:51.422Z,665.1
2023-05-15T16:43:51.760Z,665.1
2023-05-15T16:45:52.265Z,699.2
2023-05-15T16:47:51.784Z,812.4
2023-05-15T16:49:52.562Z,897.8
2023-05-15T16:51:52.805Z,1152.9
2023-05-15T16:53:52.158Z,1212
2023-05-15T16:55:52.626Z,1339.4
2023-05-15T16:59:52.922Z,1900.7
2023-05-15T17:01:53.627Z,2100.6
2023-05-15T17:05:53.518Z,2100.6
2023-05-15T17:07:53.631Z,2321.6
2023-05-15T17:09:54.074Z,2208.3
2023-05-15T17:11:57.417Z,2100.6
2023-05-15T17:13:54.028Z,2208.3
2023-05-15T17:15:54.641Z,2835.6
2023-05-15T17:17:57.906Z,3133.8
2023-05-15T17:19:58.940Z,3294.5
2023-05-15T17:21:54.516Z,3294.5
2023-05-15T17:23:54.749Z,2981
2023-05-15T17:25:58.334Z,2321.6
2023-05-15T17:27:57.980Z,2321.6
2023-05-15T17:29:54.938Z,2835.6
2023-05-15T17:31:55.308Z,2321.6
2023-05-15T17:35:55.564Z,2321.6
2023-05-15T17:37:55.776Z,2208.3
2023-05-15T17:39:56.058Z,2100.6
2023-05-15T17:41:56.382Z,1900.7
2023-05-15T17:45:56.823Z,1808
2023-05-15T17:48:08.587Z,1719.9
2023-05-15T17:49:59.454Z,1636
2023-05-15T17:51:56.380Z,1556.2
2023-05-15T17:53:59.443Z,1480.3
2023-05-15T17:55:59.466Z,1408.1
2023-05-15T17:57:56.508Z,1339.4
2023-05-15T17:59:56.626Z,1274.1
2023-05-15T18:01:56.658Z,1152.9
2023-05-15T18:03:56.578Z,1043.1
2023-05-15T18:06:03.308Z,992.3
2023-05-15T18:07:56.737Z,897.8
2023-05-15T18:09:56.725Z,854.1
2023-05-15T18:11:56.669Z,735.1
2023-05-15T18:13:56.725Z,699.2
2023-05-15T18:15:56.727Z,632.7
2023-05-15T18:17:56.768Z,601.8
2023-05-15T18:20:00.900Z,544.6
2023-05-15T18:21:56.686Z,518
2023-05-15T18:23:56.722Z,468.7
2023-05-15T18:25:59.832Z,424.1
2023-05-15T18:27:56.678Z,383.8
2023-05-15T18:30:03.640Z,347.2
2023-05-15T18:31:59.902Z,314.2
2023-05-15T18:33:56.699Z,270.4
2023-05-15T18:35:59.835Z,244.7
2023-05-15T18:37:56.694Z,221.4
2023-05-15T18:39:56.710Z,190.6
2023-05-15T18:41:56.728Z,164
2023-05-15T18:43:56.821Z,148.4
2023-05-15T18:45:59.916Z,121.5
2023-05-15T18:47:59.938Z,104.6
2023-05-15T18:49:59.933Z,85.6
2023-05-15T18:51:56.734Z,73.7
2023-05-15T18:53:56.726Z,57.4
2023-05-15T18:56:03.673Z,44.7
2023-05-15T18:57:56.745Z,34.8
2023-05-15T18:59:56.789Z,27.1
2023-05-15T19:01:56.808Z,20.1
2023-05-15T19:03:56.737Z,15.6
2023-05-15T19:05:56.751Z,11.6
2023-05-15T19:07:56.825Z,8.6
2023-05-15T19:09:56.880Z,6
2023-05-15T19:11:56.829Z,4.5
2023-05-15T19:13:57.007Z,3.3
2023-05-15T19:15:56.887Z,2.3
2023-05-15T19:18:00.068Z,1.6
2023-05-15T19:19:56.824Z,1.3
2023-05-15T19:21:56.891Z,0.9
2023-05-15T19:23:56.830Z,0.7
2023-05-15T19:25:56.867Z,0.5
2023-05-15T19:27:56.882Z,0.3
2023-05-15T19:29:56.856Z,0.3
2023-05-15T19:31:56.922Z,0.2
2023-05-15T19:33:57.214Z,0.2
2023-05-15T19:36:04.112Z,0.1
2023-05-15T19:37:56.889Z,0.1
2023-05-15T19:39:56.972Z,0
2023-05-15T19:42:00.258Z,0
2023-05-15T19:43:59.955Z,0
2023-05-15T19:45:56.886Z,0
2023-05-15T19:48:00.180Z,0
2023-05-15T19:49:59.984Z,0
2023-05-15T19:51:57.268Z,1
2023-05-15T19:54:03.648Z,1
2023-05-15T19:56:03.848Z,1
2023-05-15T19:57:57.122Z,1
2023-05-15T19:59:57.128Z,1
2023-05-15T20:01:57.329Z,1
2023-05-15T20:05:57.103Z,1
2023-05-15T20:07:57.113Z,1
2023-05-15T20:09:57.127Z,1
2023-05-15T20:11:57.197Z,1
2023-05-15T20:13:57.233Z,1
2023-05-15T20:15:57.432Z,1
2023-05-15T20:18:00.505Z,1
2023-05-15T20:19:57.234Z,1
2023-05-15T20:22:00.396Z,1
2023-05-15T20:24:00.357Z,1
2023-05-15T20:25:57.239Z,1
2023-05-15T20:27:57.381Z,1
2023-05-15T20:29:57.232Z,1
2023-05-15T20:33:57.272Z,1
2023-05-15T20:36:04.283Z,1
2023-05-15T20:37:57.229Z,1
2023-05-15T20:39:57.238Z,1
2023-05-15T20:41:57.370Z,1
2023-05-15T20:44:00.353Z,1
2023-05-15T20:45:57.242Z,1
2023-05-15T20:47:57.281Z,1
2023-05-15T20:49:57.353Z,1
2023-05-15T20:51:57.322Z,1
2023-05-15T20:54:00.384Z,1
2023-05-15T20:55:57.255Z,1
2023-05-15T20:57:57.211Z,1
2023-05-15T20:59:57.290Z,1
2023-05-15T21:01:57.235Z,1
2023-05-15T21:03:57.314Z,1
2023-05-15T21:05:57.745Z,1
2023-05-15T21:08:00.461Z,1
2023-05-15T21:09:57.219Z,1
2023-05-15T21:11:57.306Z,1
2023-05-15T21:14:00.397Z,1
2023-05-15T21:15:57.216Z,1
2023-05-15T21:17:57.315Z,1
2023-05-15T21:20:04.380Z,1
2023-05-15T21:21:57.214Z,1
2023-05-15T21:24:04.387Z,1
2023-05-15T21:26:00.475Z,1
2023-05-15T21:27:57.730Z,1
2023-05-15T21:30:04.207Z,1
2023-05-15T21:31:57.283Z,1
2023-05-15T21:33:57.321Z,1
2023-05-15T21:35:57.242Z,1
2023-05-15T21:38:04.294Z,1
2023-05-15T21:39:57.357Z,1
2023-05-15T21:42:00.461Z,1
2023-05-15T21:44:00.398Z,1
2023-05-15T21:46:00.606Z,1
2023-05-15T21:47:57.330Z,1
2023-05-15T21:49:57.315Z,1
2023-05-15T21:52:00.562Z,1
2023-05-15T21:53:57.264Z,1
2023-05-15T21:55:57.331Z,1
2023-05-15T21:58:00.639Z,1
2023-05-15T22:00:04.265Z,1
2023-05-15T22:01:57.288Z,1
2023-05-15T22:03:57.294Z,1
2023-05-15T22:06:00.453Z,1
2023-05-15T22:07:57.290Z,1
2023-05-15T22:09:57.308Z,1
2023-05-15T22:11:57.308Z,1
2023-05-15T22:13:57.279Z,1
2023-05-15T22:15:57.303Z,1
2023-05-15T22:17:57.361Z,1
2023-05-15T22:20:00.513Z,1
2023-05-15T22:21:57.312Z,1
2023-05-15T22:23:57.317Z,1
2023-05-15T22:25:57.402Z,1
2023-05-15T22:28:00.616Z,1
2023-05-15T22:30:00.544Z,1
2023-05-15T22:31:57.419Z,1
2023-05-15T22:34:04.420Z,1
2023-05-15T22:35:57.370Z,1
2023-05-15T22:37:57.393Z,1
2023-05-15T22:40:00.600Z,1
2023-05-15T22:41:57.272Z,1
2023-05-15T22:43:57.385Z,1
2023-05-15T22:45:57.402Z,1
2023-05-15T22:47:57.376Z,1
2023-05-15T22:50:00.753Z,1
2023-05-15T22:51:57.448Z,1
2023-05-15T22:54:00.551Z,1
2023-05-15T22:56:00.700Z,1
2023-05-15T22:57:57.383Z,1
2023-05-15T23:00:00.737Z,1
2023-05-15T23:02:04.238Z,1
2023-05-15T23:03:57.474Z,1
2023-05-15T23:06:00.563Z,1
2023-05-15T23:07:57.380Z,1
2023-05-15T23:09:57.010Z,1
2023-05-15T23:11:57.323Z,1
2023-05-15T23:13:57.393Z,1
2023-05-15T23:16:00.571Z,1
2023-05-15T23:17:57.381Z,1
2023-05-15T23:19:57.368Z,1
2023-05-15T23:22:00.569Z,1
2023-05-15T23:25:57.351Z,1
2023-05-15T23:27:57.419Z,1
2023-05-15T23:29:57.431Z,1
2023-05-15T23:31:57.380Z,1
2023-05-15T23:33:57.428Z,1
2023-05-15T23:35:57.357Z,1
2023-05-15T23:37:57.373Z,1
2023-05-15T23:39:57.390Z,1
2023-05-15T23:41:57.374Z,1
2023-05-15T23:43:57.394Z,1
2023-05-15T23:45:57.437Z,1
2023-05-15T23:47:57.407Z,1
2023-05-15T23:49:57.514Z,1
2023-05-15T23:51:57.490Z,1
2023-05-15T23:53:57.430Z,1
2023-05-15T23:55:57.426Z,1
2023-05-15T23:57:57.430Z,1
2023-05-15T23:59:57.481Z,1
